createdAt,value
2023-04-15T00:01:51.747Z,80.19
2023-04-15T00:04:18.521Z,79.57
2023-04-15T00:06:52.172Z,79.22
2023-04-15T00:09:19.686Z,79.74
2023-04-15T00:11:46.396Z,80.29
2023-04-15T00:14:13.674Z,79.38
2023-04-15T00:16:40.310Z,80.23
2023-04-15T00:19:07.029Z,81.16
2023-04-15T00:21:34.075Z,81.96
2023-04-15T00:24:01.207Z,82.83
2023-04-15T00:26:27.980Z,83.05
2023-04-15T00:28:54.682Z,82.58
2023-04-15T00:31:21.913Z,82.24
2023-04-15T00:33:48.816Z,82.37
2023-04-15T00:36:15.616Z,81.55
2023-04-15T00:38:42.310Z,81.43
2023-04-15T00:41:09.377Z,81.86
2023-04-15T00:43:36.001Z,82.64
2023-04-15T00:46:04.098Z,83.20
2023-04-15T00:48:30.872Z,83.25
2023-04-15T00:50:57.609Z,83.16
2023-04-15T00:53:24.268Z,83.10
2023-04-15T00:55:51.434Z,83.24
2023-04-15T00:58:18.123Z,83.36
2023-04-15T01:00:44.818Z,83.75
2023-04-15T01:03:11.846Z,83.61
2023-04-15T01:05:38.821Z,83.24
2023-04-15T01:08:05.978Z,82.98
2023-04-15T01:10:32.643Z,83.55
2023-04-15T01:12:59.307Z,83.85
2023-04-15T01:15:26.395Z,83.22
2023-04-15T01:17:53.106Z,83.63
2023-04-15T01:20:20.370Z,83.72
2023-04-15T01:22:46.993Z,83.28
2023-04-15T01:25:17.913Z,83.33
2023-04-15T01:27:44.567Z,83.38
2023-04-15T01:30:11.597Z,83.24
2023-04-15T01:32:38.358Z,83.10
2023-04-15T01:35:05.398Z,82.91
2023-04-15T01:37:32.086Z,82.89
2023-04-15T01:39:58.736Z,82.64
2023-04-15T01:42:25.476Z,82.69
2023-04-15T01:44:52.226Z,82.90
2023-04-15T01:47:18.921Z,82.77
2023-04-15T01:49:45.662Z,82.46
2023-04-15T01:52:12.280Z,82.79
2023-04-15T01:54:38.934Z,83.18
2023-04-15T01:57:05.738Z,83.40
2023-04-15T01:59:32.423Z,83.32
2023-04-15T02:01:59.151Z,83.61
2023-04-15T02:04:25.921Z,83.69
2023-04-15T02:06:52.569Z,83.66
2023-04-15T02:09:19.211Z,83.78
2023-04-15T02:11:45.990Z,84.33
2023-04-15T02:14:12.755Z,84.97
2023-04-15T02:16:39.419Z,85.30
2023-04-15T02:19:06.161Z,85.55
2023-04-15T02:21:32.806Z,85.69
2023-04-15T02:23:59.450Z,85.63
2023-04-15T02:26:26.196Z,85.34
2023-04-15T02:28:52.873Z,85.44
2023-04-15T02:31:19.588Z,85.48
2023-04-15T02:33:46.773Z,85.54
2023-04-15T02:36:13.427Z,85.30
2023-04-15T02:38:43.344Z,85.34
2023-04-15T02:41:10.613Z,85.64
2023-04-15T02:43:38.058Z,85.99
2023-04-15T02:46:04.826Z,86.20
2023-04-15T02:48:31.611Z,86.27
2023-04-15T02:51:19.697Z,86.48
2023-04-15T02:53:47.330Z,86.43
2023-04-15T02:56:15.339Z,86.28
2023-04-15T02:58:42.225Z,86.05
2023-04-15T03:01:11.881Z,85.96
2023-04-15T03:03:38.621Z,85.98
2023-04-15T03:06:05.507Z,85.91
2023-04-15T03:08:32.256Z,85.89
2023-04-15T03:11:00.920Z,85.76
2023-04-15T03:13:27.709Z,85.59
2023-04-15T03:15:54.504Z,85.23
2023-04-15T03:18:21.619Z,84.52
2023-04-15T03:20:48.261Z,83.90
2023-04-15T03:23:15.012Z,84.24
2023-04-15T03:25:41.754Z,84.38
2023-04-15T03:28:08.382Z,84.32
2023-04-15T03:30:35.049Z,84.63
2023-04-15T03:33:01.832Z,84.94
2023-04-15T03:35:28.522Z,85.11
2023-04-15T03:37:55.698Z,85.07
2023-04-15T03:40:22.618Z,84.94
2023-04-15T03:42:49.275Z,84.85
2023-04-15T03:45:16.145Z,84.82
2023-04-15T03:47:42.910Z,84.63
2023-04-15T03:50:09.738Z,84.41
2023-04-15T03:52:36.443Z,83.92
2023-04-15T03:55:03.166Z,83.62
2023-04-15T03:57:29.858Z,83.56
2023-04-15T03:59:56.561Z,83.57
2023-04-15T04:02:23.600Z,83.50
2023-04-15T04:04:50.826Z,83.44
2023-04-15T04:07:18.232Z,83.29
2023-04-15T04:09:47.027Z,83.08
2023-04-15T04:12:14.057Z,83.20
2023-04-15T04:14:40.874Z,83.65
2023-04-15T04:17:07.559Z,83.43
2023-04-15T04:19:34.254Z,83.16
2023-04-15T04:22:01.079Z,83.26
2023-04-15T04:24:27.776Z,83.16
2023-04-15T04:26:54.570Z,83.38
2023-04-15T04:29:21.514Z,82.88
2023-04-15T04:31:48.799Z,82.58
2023-04-15T04:34:16.204Z,82.85
2023-04-15T04:36:42.886Z,82.86
2023-04-15T04:39:09.519Z,83.10
2023-04-15T04:41:36.318Z,83.46
2023-04-15T04:44:03.724Z,83.63
2023-04-15T04:46:30.398Z,83.17
2023-04-15T04:48:57.020Z,82.91
2023-04-15T04:51:23.751Z,82.43
2023-04-15T04:53:50.552Z,82.62
2023-04-15T04:56:17.212Z,82.79
2023-04-15T04:58:43.890Z,83.00
2023-04-15T05:01:10.640Z,83.09
2023-04-15T05:03:38.103Z,82.82
2023-04-15T05:06:07.437Z,82.17
2023-04-15T05:08:34.148Z,81.06
2023-04-15T05:11:00.892Z,80.20
2023-04-15T05:13:27.549Z,80.64
2023-04-15T05:15:54.271Z,80.46
2023-04-15T05:18:21.044Z,80.11
2023-04-15T05:20:47.925Z,80.16
2023-04-15T05:23:14.627Z,80.17
2023-04-15T05:25:41.540Z,79.67
2023-04-15T05:28:08.221Z,79.05
2023-04-15T05:30:34.915Z,80.20
2023-04-15T05:33:01.927Z,79.76
2023-04-15T05:35:28.680Z,77.36
2023-04-15T05:37:55.302Z,77.54
2023-04-15T05:40:22.382Z,77.38
2023-04-15T05:42:49.025Z,77.03
2023-04-15T05:45:15.614Z,77.85
2023-04-15T05:47:42.565Z,77.33
2023-04-15T05:50:09.643Z,78.02
2023-04-15T05:52:37.054Z,76.93
2023-04-15T05:55:03.793Z,76.50
2023-04-15T05:57:30.452Z,76.04
2023-04-15T05:59:57.912Z,75.58
2023-04-15T06:02:24.631Z,74.31
2023-04-15T06:04:51.453Z,73.89
2023-04-15T06:07:18.093Z,73.38
2023-04-15T06:09:44.990Z,72.75
2023-04-15T06:12:13.189Z,72.57
2023-04-15T06:14:40.602Z,72.27
2023-04-15T06:17:07.674Z,72.56
2023-04-15T06:19:35.074Z,73.72
2023-04-15T06:22:01.962Z,72.84
2023-04-15T06:24:28.748Z,72.63
2023-04-15T06:26:56.061Z,69.96
2023-04-15T06:29:22.695Z,68.64
2023-04-15T06:31:49.922Z,70.80
2023-04-15T06:34:16.723Z,69.52
2023-04-15T06:36:43.393Z,68.43
2023-04-15T06:39:10.610Z,66.96
2023-04-15T06:41:37.344Z,64.73
2023-04-15T06:44:04.042Z,63.64
2023-04-15T06:46:30.769Z,63.12
2023-04-15T06:48:57.472Z,63.71
2023-04-15T06:51:26.562Z,59.92
2023-04-15T06:53:53.380Z,61.09
2023-04-15T06:56:20.065Z,57.59
2023-04-15T06:58:47.260Z,57.70
2023-04-15T07:01:14.459Z,54.25
2023-04-15T07:03:42.057Z,57.68
2023-04-15T07:06:09.514Z,58.76
2023-04-15T07:08:36.269Z,52.18
2023-04-15T07:11:02.943Z,47.37
2023-04-15T07:13:31.561Z,48.66
2023-04-15T07:15:58.622Z,50.07
2023-04-15T07:18:25.590Z,52.51
2023-04-15T07:20:52.306Z,47.98
2023-04-15T07:23:18.926Z,44.90
2023-04-15T07:25:45.684Z,44.40
2023-04-15T07:28:12.652Z,45.16
2023-04-15T07:30:39.586Z,49.22
2023-04-15T07:33:06.277Z,44.86
2023-04-15T07:35:33.402Z,45.48
2023-04-15T07:38:00.036Z,43.21
2023-04-15T07:40:26.703Z,44.66
2023-04-15T07:42:53.368Z,45.15
2023-04-15T07:45:20.180Z,45.46
2023-04-15T07:47:47.019Z,46.36
2023-04-15T07:50:13.753Z,46.17
2023-04-15T07:52:40.468Z,42.34
2023-04-15T07:55:08.625Z,47.88
2023-04-15T07:57:36.314Z,43.96
2023-04-15T08:00:05.840Z,45.10
2023-04-15T08:02:32.750Z,39.31
2023-04-15T08:04:59.888Z,39.83
2023-04-15T08:07:27.465Z,39.58
2023-04-15T08:09:54.121Z,37.49
2023-04-15T08:12:20.824Z,37.33
2023-04-15T08:14:47.591Z,42.43
2023-04-15T08:17:14.288Z,39.07
2023-04-15T08:19:41.421Z,37.56
2023-04-15T08:22:15.158Z,38.51
2023-04-15T08:24:44.672Z,42.02
2023-04-15T08:27:11.309Z,35.76
2023-04-15T08:29:38.024Z,38.65
2023-04-15T08:32:05.008Z,36.80
2023-04-15T08:34:32.128Z,35.89
2023-04-15T08:36:58.799Z,38.73
2023-04-15T08:39:26.112Z,39.15
2023-04-15T08:42:02.720Z,42.74
2023-04-15T08:44:30.613Z,34.88
2023-04-15T08:46:57.440Z,34.32
2023-04-15T08:49:24.046Z,33.51
2023-04-15T08:51:50.690Z,32.36
2023-04-15T08:54:17.329Z,33.47
2023-04-15T08:56:44.016Z,32.46
2023-04-15T08:59:11.377Z,33.45
2023-04-15T09:01:38.428Z,33.08
2023-04-15T09:04:08.210Z,33.97
2023-04-15T09:06:35.135Z,32.92
2023-04-15T09:09:01.944Z,33.08
2023-04-15T09:11:30.822Z,35.66
2023-04-15T09:13:57.684Z,36.10
2023-04-15T09:16:24.643Z,35.25
2023-04-15T09:18:51.483Z,33.65
2023-04-15T09:21:18.266Z,31.28
2023-04-15T09:24:01.485Z,34.51
2023-04-15T09:26:35.695Z,34.06
2023-04-15T09:29:09.418Z,35.03
2023-04-15T09:31:39.330Z,33.37
2023-04-15T09:34:06.270Z,34.42
2023-04-15T09:36:52.942Z,33.75
2023-04-15T09:39:19.627Z,35.02
2023-04-15T09:41:46.360Z,33.62
2023-04-15T09:44:25.288Z,32.56
2023-04-15T09:46:52.022Z,31.39
2023-04-15T09:49:18.715Z,33.35
2023-04-15T09:51:54.424Z,32.18
2023-04-15T09:54:38.210Z,33.11
2023-04-15T09:57:08.710Z,33.38
2023-04-15T09:59:35.713Z,32.56
2023-04-15T10:02:07.832Z,33.20
2023-04-15T10:04:36.712Z,33.02
2023-04-15T10:07:05.068Z,34.82
2023-04-15T10:09:32.034Z,36.00
2023-04-15T10:11:59.376Z,34.86
2023-04-15T10:14:26.024Z,32.29
2023-04-15T10:16:52.664Z,32.78
2023-04-15T10:19:19.789Z,37.01
2023-04-15T10:21:46.759Z,32.52
2023-04-15T10:24:13.430Z,29.57
2023-04-15T10:26:40.059Z,33.89
2023-04-15T10:29:06.676Z,33.05
2023-04-15T10:31:33.338Z,29.26
2023-04-15T10:34:04.317Z,27.99
2023-04-15T10:36:31.112Z,32.80
2023-04-15T10:38:57.784Z,30.01
2023-04-15T10:41:28.195Z,31.16
2023-04-15T10:44:03.311Z,31.08
2023-04-15T10:46:43.508Z,28.16
2023-04-15T10:49:14.933Z,26.66
2023-04-15T10:51:45.546Z,26.73
2023-04-15T10:54:27.291Z,29.36
2023-04-15T10:57:21.873Z,25.63
2023-04-15T11:00:15.513Z,31.00
2023-04-15T11:02:47.503Z,28.99
2023-04-15T11:05:18.073Z,28.11
2023-04-15T11:07:44.804Z,27.72
2023-04-15T11:10:14.198Z,28.18
2023-04-15T11:12:41.298Z,31.41
2023-04-15T11:15:45.612Z,32.28
2023-04-15T11:18:19.040Z,28.46
2023-04-15T11:20:45.780Z,28.98
2023-04-15T11:23:14.592Z,29.12
2023-04-15T11:25:43.298Z,31.37
2023-04-15T11:28:10.636Z,31.18
2023-04-15T11:30:37.567Z,29.96
2023-04-15T11:33:12.570Z,32.64
2023-04-15T11:35:41.081Z,28.49
2023-04-15T11:38:12.269Z,29.09
2023-04-15T11:40:38.994Z,28.82
2023-04-15T11:43:08.756Z,29.92
2023-04-15T11:45:44.504Z,31.15
2023-04-15T11:48:11.773Z,28.93
2023-04-15T11:50:40.892Z,28.53
2023-04-15T11:53:09.142Z,31.65
2023-04-15T11:55:50.487Z,25.99
2023-04-15T11:58:26.776Z,26.86
2023-04-15T12:00:59.012Z,26.82
2023-04-15T12:03:30.556Z,28.06
2023-04-15T12:06:06.360Z,27.58
2023-04-15T12:08:59.192Z,24.84
2023-04-15T12:11:32.523Z,25.57
2023-04-15T12:14:07.458Z,24.62
2023-04-15T12:16:37.212Z,23.83
2023-04-15T12:19:17.138Z,25.19
2023-04-15T12:21:45.504Z,25.68
2023-04-15T12:24:15.521Z,25.54
2023-04-15T12:26:49.662Z,25.26
2023-04-15T12:29:17.345Z,26.51
2023-04-15T12:31:51.729Z,24.52
2023-04-15T12:34:18.702Z,25.67
2023-04-15T12:36:45.325Z,23.08
2023-04-15T12:39:12.044Z,27.47
2023-04-15T12:41:39.050Z,27.41
2023-04-15T12:44:05.867Z,25.35
2023-04-15T12:46:32.875Z,26.56
2023-04-15T12:48:59.546Z,27.31
2023-04-15T12:51:27.424Z,27.91
2023-04-15T12:53:54.124Z,29.33
2023-04-15T12:56:20.754Z,28.91
2023-04-15T12:58:47.507Z,29.10
2023-04-15T13:01:14.211Z,29.44
2023-04-15T13:03:41.272Z,29.49
2023-04-15T13:06:08.267Z,29.27
2023-04-15T13:08:36.873Z,30.47
2023-04-15T13:11:05.959Z,34.16
2023-04-15T13:13:32.771Z,34.00
2023-04-15T13:15:59.440Z,35.60
2023-04-15T13:18:26.145Z,36.89
2023-04-15T13:20:52.818Z,36.81
2023-04-15T13:23:19.443Z,38.30
2023-04-15T13:25:46.112Z,37.68
2023-04-15T13:28:12.703Z,37.67
2023-04-15T13:30:39.540Z,36.48
2023-04-15T13:33:06.339Z,36.95
2023-04-15T13:35:33.140Z,36.27
2023-04-15T13:37:59.776Z,35.37
2023-04-15T13:40:26.399Z,36.78
2023-04-15T13:42:53.330Z,34.63
2023-04-15T13:45:20.044Z,33.21
2023-04-15T13:47:46.722Z,33.43
2023-04-15T13:50:13.469Z,34.24
2023-04-15T13:52:40.161Z,34.80
2023-04-15T13:55:19.547Z,34.26
2023-04-15T13:57:47.926Z,34.59
2023-04-15T14:00:14.885Z,35.30
2023-04-15T14:02:42.454Z,34.53
2023-04-15T14:05:10.797Z,36.03
2023-04-15T14:07:37.450Z,35.73
2023-04-15T14:10:04.414Z,36.75
2023-04-15T14:12:31.152Z,38.63
2023-04-15T14:14:57.858Z,40.07
2023-04-15T14:17:24.547Z,41.91
2023-04-15T14:19:51.334Z,40.25
2023-04-15T14:22:19.035Z,39.39
2023-04-15T14:24:45.735Z,38.88
2023-04-15T14:27:12.669Z,38.91
2023-04-15T14:29:39.324Z,39.98
2023-04-15T14:32:12.337Z,39.06
2023-04-15T14:34:39.747Z,38.85
2023-04-15T14:37:06.523Z,38.42
2023-04-15T14:39:33.176Z,40.62
2023-04-15T14:41:59.946Z,39.90
2023-04-15T14:44:26.602Z,40.77
2023-04-15T14:46:53.705Z,42.45
2023-04-15T14:49:20.524Z,40.56
2023-04-15T14:51:47.178Z,39.25
2023-04-15T14:54:13.818Z,40.62
2023-04-15T14:56:40.574Z,40.11
2023-04-15T14:59:07.512Z,41.54
2023-04-15T15:01:34.575Z,42.64
2023-04-15T15:04:01.421Z,41.46
2023-04-15T15:06:28.428Z,40.51
2023-04-15T15:08:55.068Z,40.26
2023-04-15T15:11:21.799Z,41.52
2023-04-15T15:13:48.586Z,41.40
2023-04-15T15:16:15.352Z,42.80
2023-04-15T15:18:42.120Z,43.53
2023-04-15T15:21:08.777Z,43.67
2023-04-15T15:23:35.615Z,44.09
2023-04-15T15:26:02.298Z,43.49
2023-04-15T15:28:28.904Z,43.39
2023-04-15T15:30:55.915Z,43.68
2023-04-15T15:33:22.612Z,43.85
2023-04-15T15:35:49.349Z,42.57
2023-04-15T15:38:16.252Z,42.88
2023-04-15T15:40:42.915Z,42.09
2023-04-15T15:43:09.528Z,41.68
2023-04-15T15:45:36.223Z,41.01
2023-04-15T15:48:02.969Z,41.82
2023-04-15T15:50:29.700Z,42.03
2023-04-15T15:52:56.477Z,41.24
2023-04-15T15:55:25.255Z,41.90
2023-04-15T15:57:52.020Z,42.77
2023-04-15T16:00:18.719Z,41.87
2023-04-15T16:05:14.947Z,42.42
2023-04-15T16:07:41.653Z,42.66
2023-04-15T16:10:08.944Z,42.49
2023-04-15T16:12:35.659Z,42.63
2023-04-15T16:15:02.932Z,42.31
2023-04-15T16:17:29.554Z,41.58
2023-04-15T16:20:00.779Z,41.12
2023-04-15T16:22:28.029Z,42.88
2023-04-15T16:24:54.695Z,42.99
2023-04-15T16:27:21.396Z,43.77
2023-04-15T16:29:48.001Z,45.01
2023-04-15T16:32:14.660Z,44.45
2023-04-15T16:34:41.377Z,46.01
2023-04-15T16:37:08.090Z,47.68
2023-04-15T16:39:34.803Z,48.54
2023-04-15T16:42:02.489Z,49.95
2023-04-15T16:44:29.325Z,50.91
2023-04-15T16:46:56.616Z,50.94
2023-04-15T16:49:23.280Z,51.06
2023-04-15T16:51:49.893Z,51.14
2023-04-15T16:54:16.493Z,51.32
2023-04-15T16:56:43.097Z,51.22
2023-04-15T16:59:09.770Z,51.64
2023-04-15T17:01:39.603Z,51.82
2023-04-15T17:04:07.293Z,51.91
2023-04-15T17:06:34.014Z,51.74
2023-04-15T17:09:00.707Z,52.20
2023-04-15T17:11:28.109Z,52.84
2023-04-15T17:13:54.721Z,52.38
2023-04-15T17:16:21.624Z,52.04
2023-04-15T17:18:50.262Z,51.01
2023-04-15T17:21:17.621Z,51.33
2023-04-15T17:23:44.341Z,51.77
2023-04-15T17:26:11.163Z,52.59
2023-04-15T17:28:38.113Z,51.91
2023-04-15T17:31:05.097Z,52.32
2023-04-15T17:34:04.599Z,52.33
2023-04-15T17:36:18.438Z,52.91
2023-04-15T17:38:45.576Z,52.75
2023-04-15T17:41:12.347Z,53.46
2023-04-15T17:43:39.058Z,54.30
2023-04-15T17:46:07.108Z,54.66
2023-04-15T17:48:34.209Z,54.10
2023-04-15T17:51:00.938Z,55.56
2023-04-15T17:53:27.896Z,56.72
2023-04-15T17:55:54.802Z,57.69
2023-04-15T17:58:21.478Z,57.69
2023-04-15T18:00:48.116Z,57.71
2023-04-15T18:03:15.193Z,58.41
2023-04-15T18:05:42.795Z,58.38
2023-04-15T18:08:09.654Z,59.03
2023-04-15T18:10:36.450Z,58.78
2023-04-15T18:13:03.518Z,58.02
2023-04-15T18:15:33.544Z,58.54
2023-04-15T18:18:00.308Z,58.68
2023-04-15T18:20:27.057Z,58.10
2023-04-15T18:22:53.736Z,57.99
2023-04-15T18:25:20.538Z,58.10
2023-04-15T18:27:47.229Z,58.90
2023-04-15T18:30:13.872Z,59.79
2023-04-15T18:32:41.044Z,59.90
2023-04-15T18:35:08.148Z,58.88
2023-04-15T18:37:34.860Z,59.36
2023-04-15T18:40:01.500Z,59.02
2023-04-15T18:42:28.244Z,59.04
2023-04-15T18:44:55.120Z,58.76
2023-04-15T18:47:22.096Z,58.41
2023-04-15T18:49:48.767Z,59.31
2023-04-15T18:52:15.555Z,58.70
2023-04-15T18:54:42.211Z,59.17
2023-04-15T18:57:08.838Z,60.24
2023-04-15T18:59:35.772Z,60.45
2023-04-15T19:02:06.491Z,59.98
2023-04-15T19:04:33.332Z,59.64
2023-04-15T19:07:00.079Z,59.96
2023-04-15T19:09:26.878Z,59.84
2023-04-15T19:11:53.588Z,60.42
2023-04-15T19:14:20.342Z,59.56
2023-04-15T19:16:47.027Z,61.06
2023-04-15T19:19:15.054Z,60.98
2023-04-15T19:21:41.727Z,60.20
2023-04-15T19:24:08.378Z,61.06
2023-04-15T19:26:36.745Z,60.52
2023-04-15T19:29:03.911Z,60.21
2023-04-15T19:31:30.770Z,59.69
2023-04-15T19:33:57.443Z,61.00
2023-04-15T19:36:24.081Z,60.17
2023-04-15T19:38:50.804Z,60.97
2023-04-15T19:41:17.438Z,61.51
2023-04-15T19:43:44.134Z,61.25
2023-04-15T19:46:13.223Z,60.80
2023-04-15T19:48:40.014Z,61.54
2023-04-15T19:51:06.727Z,61.75
2023-04-15T19:53:33.423Z,61.18
2023-04-15T19:56:00.426Z,61.88
2023-04-15T19:58:27.062Z,61.39
2023-04-15T20:00:53.725Z,62.20
2023-04-15T20:03:21.017Z,62.61
2023-04-15T20:05:47.910Z,62.26
2023-04-15T20:08:14.565Z,62.58
2023-04-15T20:10:41.198Z,62.08
2023-04-15T20:13:07.863Z,62.29
2023-04-15T20:15:34.676Z,62.44
2023-04-15T20:18:01.423Z,62.46
2023-04-15T20:20:28.248Z,62.93
2023-04-15T20:22:54.908Z,63.12
2023-04-15T20:25:21.594Z,62.28
2023-04-15T20:27:48.257Z,62.45
2023-04-15T20:30:14.962Z,63.20
2023-04-15T20:32:41.676Z,63.74
2023-04-15T20:35:08.512Z,64.04
2023-04-15T20:37:36.676Z,64.53
2023-04-15T20:40:03.470Z,65.18
2023-04-15T20:42:34.338Z,65.15
2023-04-15T20:45:01.338Z,65.15
2023-04-15T20:47:28.110Z,65.31
2023-04-15T20:49:54.809Z,65.44
2023-04-15T20:52:21.861Z,65.66
2023-04-15T20:54:48.489Z,65.48
2023-04-15T20:57:15.450Z,65.80
2023-04-15T20:59:42.162Z,66.15
2023-04-15T21:02:08.946Z,66.29
2023-04-15T21:04:35.908Z,66.60
2023-04-15T21:07:02.637Z,66.66
2023-04-15T21:09:29.261Z,66.63
2023-04-15T21:14:25.588Z,67.06
2023-04-15T21:16:52.243Z,67.31
2023-04-15T21:19:18.877Z,67.73
2023-04-15T21:21:45.666Z,67.43
2023-04-15T21:24:12.322Z,67.53
2023-04-15T21:26:39.026Z,67.98
2023-04-15T21:29:07.304Z,67.93
2023-04-15T21:31:36.279Z,68.19
2023-04-15T21:34:02.962Z,68.08
2023-04-15T21:36:29.611Z,69.07
2023-04-15T21:38:56.222Z,68.38
2023-04-15T21:41:22.923Z,69.16
2023-04-15T21:43:49.571Z,69.10
2023-04-15T21:46:23.648Z,69.19
2023-04-15T21:48:53.342Z,69.33
2023-04-15T21:51:20.084Z,69.59
2023-04-15T21:53:46.731Z,69.51
2023-04-15T21:56:13.437Z,69.81
2023-04-15T21:58:40.072Z,69.42
2023-04-15T22:01:06.735Z,69.61
2023-04-15T22:03:34.418Z,70.82
2023-04-15T22:06:04.547Z,70.26
2023-04-15T22:08:44.505Z,70.05
2023-04-15T22:11:28.140Z,70.52
2023-04-15T22:13:55.058Z,70.02
2023-04-15T22:16:21.853Z,70.08
2023-04-15T22:18:48.646Z,69.41
2023-04-15T22:21:15.418Z,68.90
2023-04-15T22:23:42.046Z,69.98
2023-04-15T22:26:08.709Z,71.11
2023-04-15T22:28:35.381Z,71.22
2023-04-15T22:31:02.501Z,70.75
2023-04-15T22:33:29.426Z,70.17
2023-04-15T22:35:56.312Z,70.23
2023-04-15T22:38:22.961Z,70.28
2023-04-15T22:40:49.579Z,70.41
2023-04-15T22:43:16.296Z,70.92
2023-04-15T22:45:42.954Z,71.33
2023-04-15T22:48:09.561Z,71.62
2023-04-15T22:50:37.464Z,71.89
2023-04-15T22:53:04.126Z,70.58
2023-04-15T22:55:30.928Z,70.61
2023-04-15T22:57:57.721Z,70.47
2023-04-15T23:00:24.335Z,70.47
2023-04-15T23:02:51.287Z,70.75
2023-04-15T23:05:18.242Z,70.95
2023-04-15T23:07:44.915Z,70.87
2023-04-15T23:10:11.686Z,70.32
2023-04-15T23:12:38.355Z,70.52
2023-04-15T23:15:05.459Z,70.21
2023-04-15T23:17:32.177Z,70.71
2023-04-15T23:19:58.922Z,71.94
2023-04-15T23:22:25.568Z,71.65
2023-04-15T23:24:52.212Z,71.22
2023-04-15T23:27:19.082Z,71.08
2023-04-15T23:29:46.184Z,70.94
2023-04-15T23:32:12.891Z,71.25
2023-04-15T23:34:39.567Z,71.44
2023-04-15T23:37:06.250Z,71.24
2023-04-15T23:39:33.094Z,71.09
2023-04-15T23:41:59.771Z,71.32
2023-04-15T23:44:27.147Z,71.41
2023-04-15T23:46:53.865Z,71.84
2023-04-15T23:49:20.774Z,71.98
2023-04-15T23:51:47.515Z,72.10
2023-04-15T23:54:14.867Z,72.22
2023-04-15T23:56:41.496Z,72.70
2023-04-15T23:59:08.439Z,73.06
